sensor_id;sensor_type;location;lat;lon;timestamp;P1;durP1;ratioP1;P2;durP2;ratioP2
54883;SDS011;40776;52.880;6.016;2023-05-01T00:01:07;10.57;;;4.13;;
54883;SDS011;40776;52.880;6.016;2023-05-01T00:03:34;8.85;;;3.30;;
54883;SDS011;40776;52.880;6.016;2023-05-01T00:06:01;5.88;;;3.60;;
54883;SDS011;40776;52.880;6.016;2023-05-01T00:08:27;6.40;;;2.90;;
54883;SDS011;40776;52.880;6.016;2023-05-01T00:10:53;8.02;;;3.42;;
54883;SDS011;40776;52.880;6.016;2023-05-01T00:13:19;6.00;;;3.35;;
54883;SDS011;40776;52.880;6.016;2023-05-01T00:15:48;9.48;;;3.70;;
54883;SDS011;40776;52.880;6.016;2023-05-01T00:18:14;6.88;;;3.40;;
54883;SDS011;40776;52.880;6.016;2023-05-01T00:20:40;11.60;;;3.92;;
54883;SDS011;40776;52.880;6.016;2023-05-01T00:23:07;8.68;;;3.72;;
54883;SDS011;40776;52.880;6.016;2023-05-01T00:25:33;7.88;;;3.58;;
54883;SDS011;40776;52.880;6.016;2023-05-01T00:27:59;5.38;;;3.38;;
54883;SDS011;40776;52.880;6.016;2023-05-01T00:30:26;6.65;;;3.42;;
54883;SDS011;40776;52.880;6.016;2023-05-01T00:32:52;6.47;;;3.60;;
54883;SDS011;40776;52.880;6.016;2023-05-01T00:35:18;8.15;;;3.60;;
54883;SDS011;40776;52.880;6.016;2023-05-01T00:37:44;9.80;;;4.32;;
54883;SDS011;40776;52.880;6.016;2023-05-01T00:40:10;6.82;;;3.53;;
54883;SDS011;40776;52.880;6.016;2023-05-01T00:42:36;7.72;;;3.03;;
54883;SDS011;40776;52.880;6.016;2023-05-01T00:45:04;7.72;;;4.15;;
54883;SDS011;40776;52.880;6.016;2023-05-01T00:47:31;8.95;;;3.80;;
54883;SDS011;40776;52.880;6.016;2023-05-01T00:49:58;10.85;;;3.67;;
54883;SDS011;40776;52.880;6.016;2023-05-01T00:52:24;8.50;;;3.70;;
54883;SDS011;40776;52.880;6.016;2023-05-01T00:54:50;6.55;;;3.78;;
54883;SDS011;40776;52.880;6.016;2023-05-01T00:57:20;9.25;;;3.47;;
54883;SDS011;40776;52.880;6.016;2023-05-01T00:59:46;8.93;;;4.70;;
54883;SDS011;40776;52.880;6.016;2023-05-01T01:02:13;9.45;;;3.72;;
54883;SDS011;40776;52.880;6.016;2023-05-01T01:04:40;10.30;;;3.72;;
54883;SDS011;40776;52.880;6.016;2023-05-01T01:12:45;6.82;;;3.53;;
54883;SDS011;40776;52.880;6.016;2023-05-01T01:17:56;7.95;;;4.18;;
54883;SDS011;40776;52.880;6.016;2023-05-01T01:22:51;9.13;;;3.75;;
54883;SDS011;40776;52.880;6.016;2023-05-01T01:28:13;7.03;;;3.55;;
54883;SDS011;40776;52.880;6.016;2023-05-01T01:36:18;9.43;;;3.90;;
54883;SDS011;40776;52.880;6.016;2023-05-01T01:38:45;6.32;;;4.15;;
54883;SDS011;40776;52.880;6.016;2023-05-01T01:41:25;7.95;;;3.60;;
54883;SDS011;40776;52.880;6.016;2023-05-01T01:46:51;9.75;;;4.05;;
54883;SDS011;40776;52.880;6.016;2023-05-01T01:49:18;9.63;;;4.47;;
54883;SDS011;40776;52.880;6.016;2023-05-01T01:51:45;10.38;;;4.05;;
54883;SDS011;40776;52.880;6.016;2023-05-01T01:54:12;6.47;;;3.60;;
54883;SDS011;40776;52.880;6.016;2023-05-01T01:56:39;9.73;;;4.25;;
54883;SDS011;40776;52.880;6.016;2023-05-01T01:59:06;9.60;;;3.55;;
54883;SDS011;40776;52.880;6.016;2023-05-01T02:01:34;10.45;;;4.28;;
54883;SDS011;40776;52.880;6.016;2023-05-01T02:04:02;11.80;;;3.78;;
54883;SDS011;40776;52.880;6.016;2023-05-01T02:06:29;7.15;;;3.47;;
54883;SDS011;40776;52.880;6.016;2023-05-01T02:08:56;8.98;;;4.18;;
54883;SDS011;40776;52.880;6.016;2023-05-01T02:11:23;8.75;;;4.20;;
54883;SDS011;40776;52.880;6.016;2023-05-01T02:13:49;8.10;;;4.38;;
54883;SDS011;40776;52.880;6.016;2023-05-01T02:16:16;13.27;;;4.60;;
54883;SDS011;40776;52.880;6.016;2023-05-01T02:18:43;7.60;;;3.75;;
54883;SDS011;40776;52.880;6.016;2023-05-01T02:21:10;9.07;;;4.18;;
54883;SDS011;40776;52.880;6.016;2023-05-01T02:23:37;8.55;;;4.30;;
54883;SDS011;40776;52.880;6.016;2023-05-01T02:26:03;6.72;;;4.45;;
54883;SDS011;40776;52.880;6.016;2023-05-01T02:28:29;8.60;;;4.32;;
54883;SDS011;40776;52.880;6.016;2023-05-01T02:30:57;8.75;;;4.15;;
54883;SDS011;40776;52.880;6.016;2023-05-01T02:33:23;10.40;;;4.32;;
54883;SDS011;40776;52.880;6.016;2023-05-01T02:35:50;7.65;;;3.92;;
54883;SDS011;40776;52.880;6.016;2023-05-01T02:38:16;8.50;;;4.38;;
54883;SDS011;40776;52.880;6.016;2023-05-01T02:40:44;8.77;;;3.78;;
54883;SDS011;40776;52.880;6.016;2023-05-01T02:43:11;7.00;;;3.92;;
54883;SDS011;40776;52.880;6.016;2023-05-01T02:45:38;10.50;;;4.38;;
54883;SDS011;40776;52.880;6.016;2023-05-01T02:48:05;12.27;;;4.40;;
54883;SDS011;40776;52.880;6.016;2023-05-01T02:50:33;13.80;;;4.18;;
54883;SDS011;40776;52.880;6.016;2023-05-01T02:53:00;8.65;;;4.15;;
54883;SDS011;40776;52.880;6.016;2023-05-01T02:55:27;8.20;;;4.57;;
54883;SDS011;40776;52.880;6.016;2023-05-01T02:57:56;7.47;;;4.00;;
54883;SDS011;40776;52.880;6.016;2023-05-01T03:00:23;8.27;;;4.68;;
54883;SDS011;40776;52.880;6.016;2023-05-01T03:02:49;8.18;;;4.68;;
54883;SDS011;40776;52.880;6.016;2023-05-01T03:05:15;9.80;;;4.15;;
54883;SDS011;40776;52.880;6.016;2023-05-01T03:07:41;9.73;;;4.68;;
54883;SDS011;40776;52.880;6.016;2023-05-01T03:10:07;9.52;;;4.07;;
54883;SDS011;40776;52.880;6.016;2023-05-01T03:12:33;7.25;;;4.60;;
54883;SDS011;40776;52.880;6.016;2023-05-01T03:14:59;9.20;;;4.45;;
54883;SDS011;40776;52.880;6.016;2023-05-01T03:17:25;11.43;;;4.65;;
54883;SDS011;40776;52.880;6.016;2023-05-01T03:19:51;9.40;;;4.57;;
54883;SDS011;40776;52.880;6.016;2023-05-01T03:22:18;8.23;;;4.38;;
54883;SDS011;40776;52.880;6.016;2023-05-01T03:24:44;10.27;;;4.40;;
54883;SDS011;40776;52.880;6.016;2023-05-01T03:27:11;10.43;;;5.50;;
54883;SDS011;40776;52.880;6.016;2023-05-01T03:29:37;9.52;;;5.10;;
54883;SDS011;40776;52.880;6.016;2023-05-01T03:32:04;8.98;;;4.47;;
54883;SDS011;40776;52.880;6.016;2023-05-01T03:34:30;11.90;;;4.90;;
54883;SDS011;40776;52.880;6.016;2023-05-01T03:36:56;12.45;;;5.30;;
54883;SDS011;40776;52.880;6.016;2023-05-01T03:39:23;8.82;;;4.63;;
54883;SDS011;40776;52.880;6.016;2023-05-01T03:41:49;6.90;;;3.85;;
54883;SDS011;40776;52.880;6.016;2023-05-01T03:44:15;8.25;;;4.93;;
54883;SDS011;40776;52.880;6.016;2023-05-01T03:46:41;11.50;;;4.68;;
54883;SDS011;40776;52.880;6.016;2023-05-01T03:49:08;8.80;;;4.25;;
54883;SDS011;40776;52.880;6.016;2023-05-01T03:51:34;9.60;;;4.45;;
54883;SDS011;40776;52.880;6.016;2023-05-01T03:54:00;8.38;;;4.47;;
54883;SDS011;40776;52.880;6.016;2023-05-01T03:56:26;8.13;;;4.28;;
54883;SDS011;40776;52.880;6.016;2023-05-01T03:58:52;13.23;;;5.20;;
54883;SDS011;40776;52.880;6.016;2023-05-01T04:01:18;9.27;;;4.85;;
54883;SDS011;40776;52.880;6.016;2023-05-01T04:03:45;8.23;;;4.75;;
54883;SDS011;40776;52.880;6.016;2023-05-01T04:06:12;11.52;;;5.15;;
54883;SDS011;40776;52.880;6.016;2023-05-01T04:08:38;11.52;;;5.28;;
54883;SDS011;40776;52.880;6.016;2023-05-01T04:11:04;9.63;;;4.75;;
54883;SDS011;40776;52.880;6.016;2023-05-01T04:13:33;12.98;;;5.05;;
54883;SDS011;40776;52.880;6.016;2023-05-01T04:15:59;10.68;;;5.07;;
54883;SDS011;40776;52.880;6.016;2023-05-01T04:18:26;11.48;;;4.80;;
54883;SDS011;40776;52.880;6.016;2023-05-01T04:20:52;9.57;;;4.68;;
54883;SDS011;40776;52.880;6.016;2023-05-01T04:23:18;8.43;;;4.75;;
54883;SDS011;40776;52.880;6.016;2023-05-01T04:25:44;13.65;;;5.05;;
54883;SDS011;40776;52.880;6.016;2023-05-01T04:28:11;8.27;;;4.47;;
54883;SDS011;40776;52.880;6.016;2023-05-01T04:30:37;14.25;;;6.90;;
54883;SDS011;40776;52.880;6.016;2023-05-01T04:33:03;8.90;;;4.80;;
54883;SDS011;40776;52.880;6.016;2023-05-01T04:35:39;10.00;;;5.18;;
54883;SDS011;40776;52.880;6.016;2023-05-01T04:38:06;11.07;;;5.38;;
54883;SDS011;40776;52.880;6.016;2023-05-01T04:40:33;11.30;;;4.60;;
54883;SDS011;40776;52.880;6.016;2023-05-01T04:42:59;10.02;;;4.68;;
54883;SDS011;40776;52.880;6.016;2023-05-01T04:45:25;8.77;;;4.60;;
54883;SDS011;40776;52.880;6.016;2023-05-01T04:47:51;10.32;;;4.85;;
54883;SDS011;40776;52.880;6.016;2023-05-01T04:50:17;10.50;;;5.10;;
54883;SDS011;40776;52.880;6.016;2023-05-01T04:52:43;9.45;;;4.97;;
54883;SDS011;40776;52.880;6.016;2023-05-01T04:57:47;12.30;;;4.65;;
54883;SDS011;40776;52.880;6.016;2023-05-01T05:00:13;15.82;;;5.00;;
54883;SDS011;40776;52.880;6.016;2023-05-01T05:02:40;11.75;;;5.13;;
54883;SDS011;40776;52.880;6.016;2023-05-01T05:05:06;9.38;;;4.85;;
54883;SDS011;40776;52.880;6.016;2023-05-01T05:07:32;8.27;;;4.50;;
54883;SDS011;40776;52.880;6.016;2023-05-01T05:09:58;10.85;;;4.70;;
54883;SDS011;40776;52.880;6.016;2023-05-01T05:12:24;8.55;;;4.53;;
54883;SDS011;40776;52.880;6.016;2023-05-01T05:14:50;11.75;;;5.95;;
54883;SDS011;40776;52.880;6.016;2023-05-01T05:17:16;10.68;;;4.78;;
54883;SDS011;40776;52.880;6.016;2023-05-01T05:19:42;8.55;;;4.47;;
54883;SDS011;40776;52.880;6.016;2023-05-01T05:22:08;7.72;;;5.05;;
54883;SDS011;40776;52.880;6.016;2023-05-01T05:24:36;10.02;;;5.22;;
54883;SDS011;40776;52.880;6.016;2023-05-01T05:27:02;16.63;;;6.63;;
54883;SDS011;40776;52.880;6.016;2023-05-01T05:29:30;11.32;;;5.53;;
54883;SDS011;40776;52.880;6.016;2023-05-01T05:31:57;10.23;;;5.05;;
54883;SDS011;40776;52.880;6.016;2023-05-01T05:34:23;12.30;;;5.50;;
54883;SDS011;40776;52.880;6.016;2023-05-01T05:36:50;11.55;;;5.38;;
54883;SDS011;40776;52.880;6.016;2023-05-01T05:39:16;10.25;;;4.85;;
54883;SDS011;40776;52.880;6.016;2023-05-01T05:41:42;9.40;;;4.85;;
54883;SDS011;40776;52.880;6.016;2023-05-01T05:44:08;12.07;;;5.40;;
54883;SDS011;40776;52.880;6.016;2023-05-01T05:46:36;11.65;;;5.30;;
54883;SDS011;40776;52.880;6.016;2023-05-01T05:49:02;15.63;;;5.03;;
54883;SDS011;40776;52.880;6.016;2023-05-01T05:51:29;9.07;;;4.43;;
54883;SDS011;40776;52.880;6.016;2023-05-01T05:53:55;11.80;;;5.15;;
54883;SDS011;40776;52.880;6.016;2023-05-01T05:56:21;11.27;;;5.93;;
54883;SDS011;40776;52.880;6.016;2023-05-01T05:58:48;13.15;;;5.13;;
54883;SDS011;40776;52.880;6.016;2023-05-01T06:01:14;10.23;;;4.63;;
54883;SDS011;40776;52.880;6.016;2023-05-01T06:03:40;11.45;;;5.22;;
54883;SDS011;40776;52.880;6.016;2023-05-01T06:06:06;12.38;;;5.55;;
54883;SDS011;40776;52.880;6.016;2023-05-01T06:08:32;12.52;;;5.25;;
54883;SDS011;40776;52.880;6.016;2023-05-01T06:11:00;10.52;;;4.97;;
54883;SDS011;40776;52.880;6.016;2023-05-01T06:13:26;13.90;;;5.22;;
54883;SDS011;40776;52.880;6.016;2023-05-01T06:15:52;10.43;;;4.82;;
54883;SDS011;40776;52.880;6.016;2023-05-01T06:18:18;8.88;;;4.60;;
54883;SDS011;40776;52.880;6.016;2023-05-01T06:20:44;9.95;;;5.07;;
54883;SDS011;40776;52.880;6.016;2023-05-01T06:23:11;10.43;;;4.20;;
54883;SDS011;40776;52.880;6.016;2023-05-01T06:25:38;11.65;;;5.03;;
54883;SDS011;40776;52.880;6.016;2023-05-01T06:28:04;10.75;;;4.70;;
54883;SDS011;40776;52.880;6.016;2023-05-01T06:30:30;8.68;;;4.90;;
54883;SDS011;40776;52.880;6.016;2023-05-01T06:32:56;9.80;;;5.10;;
54883;SDS011;40776;52.880;6.016;2023-05-01T06:35:22;9.55;;;4.90;;
54883;SDS011;40776;52.880;6.016;2023-05-01T06:37:49;12.38;;;5.07;;
54883;SDS011;40776;52.880;6.016;2023-05-01T06:40:15;13.82;;;6.10;;
54883;SDS011;40776;52.880;6.016;2023-05-01T06:42:41;10.70;;;5.20;;
54883;SDS011;40776;52.880;6.016;2023-05-01T06:45:07;8.82;;;4.70;;
54883;SDS011;40776;52.880;6.016;2023-05-01T06:47:34;11.13;;;4.93;;
54883;SDS011;40776;52.880;6.016;2023-05-01T06:50:00;9.38;;;5.00;;
54883;SDS011;40776;52.880;6.016;2023-05-01T06:52:26;9.73;;;5.00;;
54883;SDS011;40776;52.880;6.016;2023-05-01T06:54:52;11.85;;;5.55;;
54883;SDS011;40776;52.880;6.016;2023-05-01T06:57:18;9.15;;;4.28;;
54883;SDS011;40776;52.880;6.016;2023-05-01T06:59:44;10.13;;;5.00;;
54883;SDS011;40776;52.880;6.016;2023-05-01T07:02:11;9.20;;;4.80;;
54883;SDS011;40776;52.880;6.016;2023-05-01T07:04:37;6.47;;;4.30;;
54883;SDS011;40776;52.880;6.016;2023-05-01T07:07:03;12.13;;;4.65;;
54883;SDS011;40776;52.880;6.016;2023-05-01T07:09:29;9.15;;;4.65;;
54883;SDS011;40776;52.880;6.016;2023-05-01T07:11:55;9.10;;;4.47;;
54883;SDS011;40776;52.880;6.016;2023-05-01T07:14:21;9.38;;;4.78;;
54883;SDS011;40776;52.880;6.016;2023-05-01T07:16:47;6.63;;;4.18;;
54883;SDS011;40776;52.880;6.016;2023-05-01T07:19:13;8.60;;;4.13;;
54883;SDS011;40776;52.880;6.016;2023-05-01T07:21:40;13.00;;;5.57;;
54883;SDS011;40776;52.880;6.016;2023-05-01T07:24:06;7.55;;;3.97;;
54883;SDS011;40776;52.880;6.016;2023-05-01T07:26:32;10.38;;;4.00;;
54883;SDS011;40776;52.880;6.016;2023-05-01T07:28:59;11.70;;;3.75;;
54883;SDS011;40776;52.880;6.016;2023-05-01T07:31:25;10.57;;;4.20;;
54883;SDS011;40776;52.880;6.016;2023-05-01T07:33:51;12.57;;;3.60;;
54883;SDS011;40776;52.880;6.016;2023-05-01T07:36:17;10.57;;;3.38;;
54883;SDS011;40776;52.880;6.016;2023-05-01T07:38:44;10.55;;;3.78;;
54883;SDS011;40776;52.880;6.016;2023-05-01T07:41:10;9.00;;;3.60;;
54883;SDS011;40776;52.880;6.016;2023-05-01T07:43:36;12.25;;;4.05;;
54883;SDS011;40776;52.880;6.016;2023-05-01T07:46:02;10.85;;;4.35;;
54883;SDS011;40776;52.880;6.016;2023-05-01T07:48:30;10.73;;;4.53;;
54883;SDS011;40776;52.880;6.016;2023-05-01T07:50:59;9.90;;;3.50;;
54883;SDS011;40776;52.880;6.016;2023-05-01T07:53:26;7.70;;;3.57;;
54883;SDS011;40776;52.880;6.016;2023-05-01T07:55:52;10.25;;;4.22;;
54883;SDS011;40776;52.880;6.016;2023-05-01T07:58:18;7.38;;;3.25;;
54883;SDS011;40776;52.880;6.016;2023-05-01T08:00:44;7.75;;;3.83;;
54883;SDS011;40776;52.880;6.016;2023-05-01T08:03:10;11.07;;;4.43;;
54883;SDS011;40776;52.880;6.016;2023-05-01T08:05:40;7.82;;;3.50;;
54883;SDS011;40776;52.880;6.016;2023-05-01T08:08:07;7.43;;;3.70;;
54883;SDS011;40776;52.880;6.016;2023-05-01T08:10:33;14.75;;;5.32;;
54883;SDS011;40776;52.880;6.016;2023-05-01T08:12:59;10.07;;;4.10;;
54883;SDS011;40776;52.880;6.016;2023-05-01T08:17:54;7.78;;;3.78;;
54883;SDS011;40776;52.880;6.016;2023-05-01T08:20:20;8.98;;;4.30;;
54883;SDS011;40776;52.880;6.016;2023-05-01T08:22:46;10.48;;;4.25;;
54883;SDS011;40776;52.880;6.016;2023-05-01T08:25:12;8.00;;;4.43;;
54883;SDS011;40776;52.880;6.016;2023-05-01T08:27:38;8.90;;;3.70;;
54883;SDS011;40776;52.880;6.016;2023-05-01T08:30:05;9.93;;;3.45;;
54883;SDS011;40776;52.880;6.016;2023-05-01T08:32:31;7.53;;;3.50;;
54883;SDS011;40776;52.880;6.016;2023-05-01T08:34:57;10.98;;;4.43;;
54883;SDS011;40776;52.880;6.016;2023-05-01T08:37:23;6.22;;;3.28;;
54883;SDS011;40776;52.880;6.016;2023-05-01T08:39:49;9.65;;;3.55;;
54883;SDS011;40776;52.880;6.016;2023-05-01T08:42:15;7.45;;;3.85;;
54883;SDS011;40776;52.880;6.016;2023-05-01T08:44:42;8.77;;;3.50;;
54883;SDS011;40776;52.880;6.016;2023-05-01T08:47:14;10.25;;;3.95;;
54883;SDS011;40776;52.880;6.016;2023-05-01T08:49:41;8.82;;;3.47;;
54883;SDS011;40776;52.880;6.016;2023-05-01T08:52:07;5.75;;;3.17;;
54883;SDS011;40776;52.880;6.016;2023-05-01T08:54:38;7.85;;;3.65;;
54883;SDS011;40776;52.880;6.016;2023-05-01T08:57:08;7.65;;;3.25;;
54883;SDS011;40776;52.880;6.016;2023-05-01T08:59:35;8.80;;;3.63;;
54883;SDS011;40776;52.880;6.016;2023-05-01T09:02:04;10.45;;;3.80;;
54883;SDS011;40776;52.880;6.016;2023-05-01T09:04:33;8.48;;;3.72;;
54883;SDS011;40776;52.880;6.016;2023-05-01T09:07:03;6.80;;;3.30;;
54883;SDS011;40776;52.880;6.016;2023-05-01T09:09:30;7.53;;;3.30;;
54883;SDS011;40776;52.880;6.016;2023-05-01T09:11:59;8.50;;;3.42;;
54883;SDS011;40776;52.880;6.016;2023-05-01T09:14:51;6.13;;;2.85;;
54883;SDS011;40776;52.880;6.016;2023-05-01T09:17:21;18.95;;;5.85;;
54883;SDS011;40776;52.880;6.016;2023-05-01T09:19:47;6.25;;;3.20;;
54883;SDS011;40776;52.880;6.016;2023-05-01T09:22:16;10.23;;;3.10;;
54883;SDS011;40776;52.880;6.016;2023-05-01T09:24:43;7.22;;;2.95;;
54883;SDS011;40776;52.880;6.016;2023-05-01T09:27:11;7.80;;;3.60;;
54883;SDS011;40776;52.880;6.016;2023-05-01T09:32:22;10.13;;;3.20;;
54883;SDS011;40776;52.880;6.016;2023-05-01T09:34:53;5.90;;;2.83;;
54883;SDS011;40776;52.880;6.016;2023-05-01T09:40:04;9.43;;;3.67;;
54883;SDS011;40776;52.880;6.016;2023-05-01T09:42:31;4.57;;;2.30;;
54883;SDS011;40776;52.880;6.016;2023-05-01T09:45:02;6.25;;;1.98;;
54883;SDS011;40776;52.880;6.016;2023-05-01T09:47:37;5.47;;;2.97;;
54883;SDS011;40776;52.880;6.016;2023-05-01T09:50:04;4.57;;;2.30;;
54883;SDS011;40776;52.880;6.016;2023-05-01T09:52:30;5.68;;;2.63;;
54883;SDS011;40776;52.880;6.016;2023-05-01T09:55:15;7.78;;;3.03;;
54883;SDS011;40776;52.880;6.016;2023-05-01T09:57:42;5.13;;;2.65;;
54883;SDS011;40776;52.880;6.016;2023-05-01T10:00:09;5.75;;;2.85;;
54883;SDS011;40776;52.880;6.016;2023-05-01T10:02:38;6.07;;;3.03;;
54883;SDS011;40776;52.880;6.016;2023-05-01T10:07:56;4.35;;;3.28;;
54883;SDS011;40776;52.880;6.016;2023-05-01T10:10:23;6.80;;;3.25;;
54883;SDS011;40776;52.880;6.016;2023-05-01T10:12:49;5.78;;;2.97;;
54883;SDS011;40776;52.880;6.016;2023-05-01T10:15:16;7.75;;;3.20;;
54883;SDS011;40776;52.880;6.016;2023-05-01T10:17:42;7.15;;;3.42;;
54883;SDS011;40776;52.880;6.016;2023-05-01T10:20:11;6.35;;;3.40;;
54883;SDS011;40776;52.880;6.016;2023-05-01T10:22:38;9.02;;;4.28;;
54883;SDS011;40776;52.880;6.016;2023-05-01T10:25:08;12.50;;;4.20;;
54883;SDS011;40776;52.880;6.016;2023-05-01T10:27:37;6.95;;;3.17;;
54883;SDS011;40776;52.880;6.016;2023-05-01T10:30:03;6.80;;;3.42;;
54883;SDS011;40776;52.880;6.016;2023-05-01T10:32:30;11.65;;;3.92;;
54883;SDS011;40776;52.880;6.016;2023-05-01T10:34:57;10.55;;;4.00;;
54883;SDS011;40776;52.880;6.016;2023-05-01T10:37:27;8.98;;;4.10;;
54883;SDS011;40776;52.880;6.016;2023-05-01T10:43:16;8.30;;;3.60;;
54883;SDS011;40776;52.880;6.016;2023-05-01T10:45:46;8.90;;;4.15;;
54883;SDS011;40776;52.880;6.016;2023-05-01T10:48:50;7.32;;;3.92;;
54883;SDS011;40776;52.880;6.016;2023-05-01T10:53:45;5.47;;;3.63;;
54883;SDS011;40776;52.880;6.016;2023-05-01T11:04:04;4.38;;;2.20;;
54883;SDS011;40776;52.880;6.016;2023-05-01T11:09:01;3.30;;;1.80;;
54883;SDS011;40776;52.880;6.016;2023-05-01T11:11:47;4.45;;;2.28;;
54883;SDS011;40776;52.880;6.016;2023-05-01T11:14:13;6.00;;;2.10;;
54883;SDS011;40776;52.880;6.016;2023-05-01T11:16:40;3.40;;;1.33;;
54883;SDS011;40776;52.880;6.016;2023-05-01T11:21:37;2.97;;;1.05;;
54883;SDS011;40776;52.880;6.016;2023-05-01T11:24:04;5.28;;;1.25;;
54883;SDS011;40776;52.880;6.016;2023-05-01T11:26:30;2.67;;;1.00;;
54883;SDS011;40776;52.880;6.016;2023-05-01T11:28:58;2.45;;;1.27;;
54883;SDS011;40776;52.880;6.016;2023-05-01T11:31:27;3.97;;;0.70;;
54883;SDS011;40776;52.880;6.016;2023-05-01T11:33:57;2.63;;;0.85;;
54883;SDS011;40776;52.880;6.016;2023-05-01T11:36:23;2.67;;;1.23;;
54883;SDS011;40776;52.880;6.016;2023-05-01T11:41:18;3.00;;;0.80;;
54883;SDS011;40776;52.880;6.016;2023-05-01T11:43:56;1.38;;;0.80;;
54883;SDS011;40776;52.880;6.016;2023-05-01T11:46:23;8.25;;;1.40;;
54883;SDS011;40776;52.880;6.016;2023-05-01T11:48:52;5.25;;;0.88;;
54883;SDS011;40776;52.880;6.016;2023-05-01T11:51:18;6.50;;;1.20;;
54883;SDS011;40776;52.880;6.016;2023-05-01T11:56:26;3.22;;;1.25;;
54883;SDS011;40776;52.880;6.016;2023-05-01T11:58:52;2.85;;;1.10;;
54883;SDS011;40776;52.880;6.016;2023-05-01T12:01:19;2.85;;;1.13;;
54883;SDS011;40776;52.880;6.016;2023-05-01T12:03:45;2.83;;;1.20;;
54883;SDS011;40776;52.880;6.016;2023-05-01T12:06:11;4.63;;;1.52;;
54883;SDS011;40776;52.880;6.016;2023-05-01T12:08:41;4.15;;;1.20;;
54883;SDS011;40776;52.880;6.016;2023-05-01T12:11:17;2.67;;;1.33;;
54883;SDS011;40776;52.880;6.016;2023-05-01T12:13:44;3.05;;;1.60;;
54883;SDS011;40776;52.880;6.016;2023-05-01T12:16:12;2.40;;;1.10;;
54883;SDS011;40776;52.880;6.016;2023-05-01T12:18:38;4.28;;;1.10;;
54883;SDS011;40776;52.880;6.016;2023-05-01T12:21:04;2.97;;;1.20;;
54883;SDS011;40776;52.880;6.016;2023-05-01T12:23:31;3.78;;;1.50;;
54883;SDS011;40776;52.880;6.016;2023-05-01T12:25:58;2.97;;;1.35;;
54883;SDS011;40776;52.880;6.016;2023-05-01T12:28:24;4.72;;;2.00;;
54883;SDS011;40776;52.880;6.016;2023-05-01T12:30:51;4.55;;;1.83;;
54883;SDS011;40776;52.880;6.016;2023-05-01T12:33:21;4.22;;;1.50;;
54883;SDS011;40776;52.880;6.016;2023-05-01T12:35:48;8.18;;;2.30;;
54883;SDS011;40776;52.880;6.016;2023-05-01T12:40:57;5.07;;;2.30;;
54883;SDS011;40776;52.880;6.016;2023-05-01T12:43:30;5.95;;;2.08;;
54883;SDS011;40776;52.880;6.016;2023-05-01T12:45:56;6.72;;;2.20;;
54883;SDS011;40776;52.880;6.016;2023-05-01T12:48:23;4.65;;;2.22;;
54883;SDS011;40776;52.880;6.016;2023-05-01T12:50:49;5.53;;;2.35;;
54883;SDS011;40776;52.880;6.016;2023-05-01T12:53:22;5.72;;;2.20;;
54883;SDS011;40776;52.880;6.016;2023-05-01T12:55:52;7.75;;;2.50;;
54883;SDS011;40776;52.880;6.016;2023-05-01T12:58:18;6.63;;;2.72;;
54883;SDS011;40776;52.880;6.016;2023-05-01T13:00:45;6.75;;;2.40;;
54883;SDS011;40776;52.880;6.016;2023-05-01T13:03:12;6.35;;;3.00;;
54883;SDS011;40776;52.880;6.016;2023-05-01T13:08:30;9.10;;;2.78;;
54883;SDS011;40776;52.880;6.016;2023-05-01T13:10:57;6.18;;;3.00;;
54883;SDS011;40776;52.880;6.016;2023-05-01T13:13:30;7.75;;;3.08;;
54883;SDS011;40776;52.880;6.016;2023-05-01T13:16:30;8.18;;;3.03;;
54883;SDS011;40776;52.880;6.016;2023-05-01T13:18:51;5.55;;;3.00;;
54883;SDS011;40776;52.880;6.016;2023-05-01T13:21:21;5.20;;;3.05;;
54883;SDS011;40776;52.880;6.016;2023-05-01T13:23:57;5.82;;;3.08;;
54883;SDS011;40776;52.880;6.016;2023-05-01T13:26:24;9.48;;;3.63;;
54883;SDS011;40776;52.880;6.016;2023-05-01T13:28:54;6.13;;;3.17;;
54883;SDS011;40776;52.880;6.016;2023-05-01T13:31:21;6.28;;;3.28;;
54883;SDS011;40776;52.880;6.016;2023-05-01T13:33:48;7.50;;;3.00;;
54883;SDS011;40776;52.880;6.016;2023-05-01T13:36:15;7.85;;;3.60;;
54883;SDS011;40776;52.880;6.016;2023-05-01T13:38:42;7.53;;;4.20;;
54883;SDS011;40776;52.880;6.016;2023-05-01T13:41:18;9.05;;;3.97;;
54883;SDS011;40776;52.880;6.016;2023-05-01T13:43:45;9.05;;;4.10;;
54883;SDS011;40776;52.880;6.016;2023-05-01T13:46:12;6.80;;;3.53;;
54883;SDS011;40776;52.880;6.016;2023-05-01T13:48:39;8.73;;;3.65;;
54883;SDS011;40776;52.880;6.016;2023-05-01T13:51:08;6.80;;;3.47;;
54883;SDS011;40776;52.880;6.016;2023-05-01T13:53:35;6.53;;;3.72;;
54883;SDS011;40776;52.880;6.016;2023-05-01T13:56:04;7.80;;;3.30;;
54883;SDS011;40776;52.880;6.016;2023-05-01T13:58:31;6.85;;;3.33;;
54883;SDS011;40776;52.880;6.016;2023-05-01T14:00:58;5.85;;;3.55;;
54883;SDS011;40776;52.880;6.016;2023-05-01T14:03:24;11.98;;;3.85;;
54883;SDS011;40776;52.880;6.016;2023-05-01T14:05:50;6.55;;;3.60;;
54883;SDS011;40776;52.880;6.016;2023-05-01T14:08:20;7.72;;;3.38;;
54883;SDS011;40776;52.880;6.016;2023-05-01T14:10:46;8.27;;;3.47;;
54883;SDS011;40776;52.880;6.016;2023-05-01T14:13:14;7.50;;;3.67;;
54883;SDS011;40776;52.880;6.016;2023-05-01T14:15:42;8.70;;;3.67;;
54883;SDS011;40776;52.880;6.016;2023-05-01T14:18:09;7.00;;;3.47;;
54883;SDS011;40776;52.880;6.016;2023-05-01T14:20:36;7.88;;;4.25;;
54883;SDS011;40776;52.880;6.016;2023-05-01T14:23:03;8.50;;;3.88;;
54883;SDS011;40776;52.880;6.016;2023-05-01T14:25:31;7.35;;;4.38;;
54883;SDS011;40776;52.880;6.016;2023-05-01T14:27:59;7.78;;;4.10;;
54883;SDS011;40776;52.880;6.016;2023-05-01T14:30:35;7.00;;;3.90;;
54883;SDS011;40776;52.880;6.016;2023-05-01T14:33:06;8.23;;;4.05;;
54883;SDS011;40776;52.880;6.016;2023-05-01T14:35:32;6.68;;;3.75;;
54883;SDS011;40776;52.880;6.016;2023-05-01T14:38:12;7.30;;;4.03;;
54883;SDS011;40776;52.880;6.016;2023-05-01T14:40:39;9.43;;;4.43;;
54883;SDS011;40776;52.880;6.016;2023-05-01T14:43:08;9.20;;;5.35;;
54883;SDS011;40776;52.880;6.016;2023-05-01T14:45:35;7.97;;;4.47;;
54883;SDS011;40776;52.880;6.016;2023-05-01T14:48:01;10.45;;;5.63;;
54883;SDS011;40776;52.880;6.016;2023-05-01T14:50:29;9.60;;;5.95;;
54883;SDS011;40776;52.880;6.016;2023-05-01T14:52:56;10.38;;;6.65;;
54883;SDS011;40776;52.880;6.016;2023-05-01T14:55:26;7.10;;;4.78;;
54883;SDS011;40776;52.880;6.016;2023-05-01T14:57:56;10.63;;;5.57;;
54883;SDS011;40776;52.880;6.016;2023-05-01T15:02:50;7.80;;;4.25;;
54883;SDS011;40776;52.880;6.016;2023-05-01T15:05:16;7.38;;;4.28;;
54883;SDS011;40776;52.880;6.016;2023-05-01T15:07:42;6.95;;;4.05;;
54883;SDS011;40776;52.880;6.016;2023-05-01T15:10:09;7.65;;;4.10;;
54883;SDS011;40776;52.880;6.016;2023-05-01T15:12:38;9.55;;;4.75;;
54883;SDS011;40776;52.880;6.016;2023-05-01T15:15:04;5.90;;;4.25;;
54883;SDS011;40776;52.880;6.016;2023-05-01T15:17:30;7.40;;;4.43;;
54883;SDS011;40776;52.880;6.016;2023-05-01T15:19:56;7.72;;;4.10;;
54883;SDS011;40776;52.880;6.016;2023-05-01T15:22:22;7.57;;;3.53;;
54883;SDS011;40776;52.880;6.016;2023-05-01T15:24:48;7.85;;;4.30;;
54883;SDS011;40776;52.880;6.016;2023-05-01T15:27:14;6.05;;;3.80;;
54883;SDS011;40776;52.880;6.016;2023-05-01T15:29:41;8.80;;;5.13;;
54883;SDS011;40776;52.880;6.016;2023-05-01T15:32:07;10.05;;;5.03;;
54883;SDS011;40776;52.880;6.016;2023-05-01T15:34:33;12.45;;;6.13;;
54883;SDS011;40776;52.880;6.016;2023-05-01T15:36:59;7.72;;;5.18;;
54883;SDS011;40776;52.880;6.016;2023-05-01T15:39:26;8.45;;;6.07;;
54883;SDS011;40776;52.880;6.016;2023-05-01T15:41:52;8.32;;;6.18;;
54883;SDS011;40776;52.880;6.016;2023-05-01T15:44:18;8.13;;;5.00;;
54883;SDS011;40776;52.880;6.016;2023-05-01T15:46:47;8.50;;;5.70;;
54883;SDS011;40776;52.880;6.016;2023-05-01T15:49:13;8.73;;;5.57;;
54883;SDS011;40776;52.880;6.016;2023-05-01T15:51:40;9.82;;;5.80;;